sensor_id;sensor_type;location;lat;lon;timestamp;temperature;humidity
68804;SHT31;55787;52.678;13.314;2023-04-12T00:00:37;2.87;98.90
68804;SHT31;55787;52.678;13.314;2023-04-12T00:03:04;2.85;98.13
68804;SHT31;55787;52.678;13.314;2023-04-12T00:05:33;2.81;98.40
68804;SHT31;55787;52.678;13.314;2023-04-12T00:08:00;2.74;98.72
68804;SHT31;55787;52.678;13.314;2023-04-12T00:10:30;2.66;98.71
68804;SHT31;55787;52.678;13.314;2023-04-12T00:12:57;2.62;98.64
68804;SHT31;55787;52.678;13.314;2023-04-12T00:15:23;2.58;98.70
68804;SHT31;55787;52.678;13.314;2023-04-12T00:17:50;2.58;98.77
68804;SHT31;55787;52.678;13.314;2023-04-12T00:20:16;2.54;98.65
68804;SHT31;55787;52.678;13.314;2023-04-12T00:22:44;2.50;98.77
68804;SHT31;55787;52.678;13.314;2023-04-12T00:25:11;2.47;98.92
68804;SHT31;55787;52.678;13.314;2023-04-12T00:27:37;2.45;98.99
68804;SHT31;55787;52.678;13.314;2023-04-12T00:30:05;2.57;99.05
68804;SHT31;55787;52.678;13.314;2023-04-12T00:32:34;2.55;98.88
68804;SHT31;55787;52.678;13.314;2023-04-12T00:35:01;2.47;98.68
68804;SHT31;55787;52.678;13.314;2023-04-12T00:37:27;2.40;99.04
68804;SHT31;55787;52.678;13.314;2023-04-12T00:39:54;2.41;99.00
68804;SHT31;55787;52.678;13.314;2023-04-12T00:42:20;2.40;99.06
68804;SHT31;55787;52.678;13.314;2023-04-12T00:44:47;2.33;98.80
68804;SHT31;55787;52.678;13.314;2023-04-12T00:47:14;2.33;99.47
68804;SHT31;55787;52.678;13.314;2023-04-12T00:49:41;2.29;99.23
68804;SHT31;55787;52.678;13.314;2023-04-12T00:52:07;2.17;98.99
68804;SHT31;55787;52.678;13.314;2023-04-12T00:54:35;2.11;99.09
68804;SHT31;55787;52.678;13.314;2023-04-12T00:57:02;2.05;99.07
68804;SHT31;55787;52.678;13.314;2023-04-12T00:59:29;2.00;98.95
68804;SHT31;55787;52.678;13.314;2023-04-12T01:01:57;1.87;98.86
68804;SHT31;55787;52.678;13.314;2023-04-12T01:04:26;1.80;98.70
68804;SHT31;55787;52.678;13.314;2023-04-12T01:09:33;1.72;98.72
68804;SHT31;55787;52.678;13.314;2023-04-12T01:12:08;1.69;98.71
68804;SHT31;55787;52.678;13.314;2023-04-12T01:14:45;1.59;98.57
68804;SHT31;55787;52.678;13.314;2023-04-12T01:17:17;1.49;98.20
68804;SHT31;55787;52.678;13.314;2023-04-12T01:27:47;1.10;98.40
68804;SHT31;55787;52.678;13.314;2023-04-12T01:30:16;1.07;98.58
68804;SHT31;55787;52.678;13.314;2023-04-12T01:32:50;1.00;98.51
68804;SHT31;55787;52.678;13.314;2023-04-12T01:35:25;0.93;98.46
68804;SHT31;55787;52.678;13.314;2023-04-12T01:37:52;0.89;98.66
68804;SHT31;55787;52.678;13.314;2023-04-12T01:40:19;0.83;98.61
68804;SHT31;55787;52.678;13.314;2023-04-12T01:42:46;0.81;98.88
68804;SHT31;55787;52.678;13.314;2023-04-12T01:45:12;0.80;98.78
68804;SHT31;55787;52.678;13.314;2023-04-12T01:47:39;0.77;98.67
68804;SHT31;55787;52.678;13.314;2023-04-12T01:52:53;0.69;99.03
68804;SHT31;55787;52.678;13.314;2023-04-12T01:55:23;0.63;98.50
68804;SHT31;55787;52.678;13.314;2023-04-12T01:57:52;0.58;98.68
68804;SHT31;55787;52.678;13.314;2023-04-12T02:00:19;0.53;98.68
68804;SHT31;55787;52.678;13.314;2023-04-12T02:02:46;0.48;98.80
68804;SHT31;55787;52.678;13.314;2023-04-12T02:05:14;0.46;98.82
68804;SHT31;55787;52.678;13.314;2023-04-12T02:07:42;0.44;99.09
68804;SHT31;55787;52.678;13.314;2023-04-12T02:10:13;0.42;98.88
68804;SHT31;55787;52.678;13.314;2023-04-12T02:12:41;0.39;99.00
68804;SHT31;55787;52.678;13.314;2023-04-12T02:15:08;0.38;99.12
68804;SHT31;55787;52.678;13.314;2023-04-12T02:17:34;0.39;99.02
68804;SHT31;55787;52.678;13.314;2023-04-12T02:20:04;0.38;99.07
68804;SHT31;55787;52.678;13.314;2023-04-12T02:22:35;0.33;99.24
68804;SHT31;55787;52.678;13.314;2023-04-12T02:25:03;0.33;99.16
68804;SHT31;55787;52.678;13.314;2023-04-12T02:27:31;0.31;99.07
68804;SHT31;55787;52.678;13.314;2023-04-12T02:29:58;0.31;99.06
68804;SHT31;55787;52.678;13.314;2023-04-12T02:32:24;0.24;98.99
68804;SHT31;55787;52.678;13.314;2023-04-12T02:34:51;0.19;98.78
68804;SHT31;55787;52.678;13.314;2023-04-12T02:37:18;0.15;99.15
68804;SHT31;55787;52.678;13.314;2023-04-12T02:39:47;0.15;99.32
68804;SHT31;55787;52.678;13.314;2023-04-12T02:42:15;0.14;99.43
68804;SHT31;55787;52.678;13.314;2023-04-12T02:44:41;0.14;99.21
68804;SHT31;55787;52.678;13.314;2023-04-12T02:47:13;0.08;99.20
68804;SHT31;55787;52.678;13.314;2023-04-12T02:49:39;0.08;99.38
68804;SHT31;55787;52.678;13.314;2023-04-12T02:52:07;0.05;99.20
68804;SHT31;55787;52.678;13.314;2023-04-12T02:54:34;0.01;99.33
68804;SHT31;55787;52.678;13.314;2023-04-12T02:57:00;-0.03;99.29
68804;SHT31;55787;52.678;13.314;2023-04-12T02:59:27;-0.03;99.41
68804;SHT31;55787;52.678;13.314;2023-04-12T03:01:54;-0.10;99.21
68804;SHT31;55787;52.678;13.314;2023-04-12T03:04:21;-0.09;99.21
68804;SHT31;55787;52.678;13.314;2023-04-12T03:06:48;-0.13;99.15
68804;SHT31;55787;52.678;13.314;2023-04-12T03:09:20;-0.16;99.36
68804;SHT31;55787;52.678;13.314;2023-04-12T03:11:47;-0.17;99.32
68804;SHT31;55787;52.678;13.314;2023-04-12T03:14:14;-0.17;99.14
68804;SHT31;55787;52.678;13.314;2023-04-12T03:16:40;-0.23;98.93
68804;SHT31;55787;52.678;13.314;2023-04-12T03:19:07;-0.26;99.08
68804;SHT31;55787;52.678;13.314;2023-04-12T03:21:33;-0.27;99.16
68804;SHT31;55787;52.678;13.314;2023-04-12T03:24:00;-0.31;99.15
68804;SHT31;55787;52.678;13.314;2023-04-12T03:26:27;-0.34;99.00
68804;SHT31;55787;52.678;13.314;2023-04-12T03:28:59;-0.38;98.96
68804;SHT31;55787;52.678;13.314;2023-04-12T03:31:26;-0.41;99.19
68804;SHT31;55787;52.678;13.314;2023-04-12T03:33:53;-0.41;99.22
68804;SHT31;55787;52.678;13.314;2023-04-12T03:36:20;-0.44;99.48
68804;SHT31;55787;52.678;13.314;2023-04-12T03:38:47;-0.50;99.30
68804;SHT31;55787;52.678;13.314;2023-04-12T03:41:14;-0.50;99.31
68804;SHT31;55787;52.678;13.314;2023-04-12T03:43:41;-0.50;99.54
68804;SHT31;55787;52.678;13.314;2023-04-12T03:46:07;-0.47;99.75
68804;SHT31;55787;52.678;13.314;2023-04-12T03:48:34;-0.45;99.59
68804;SHT31;55787;52.678;13.314;2023-04-12T03:51:01;-0.50;99.54
68804;SHT31;55787;52.678;13.314;2023-04-12T03:53:33;-0.53;99.55
68804;SHT31;55787;52.678;13.314;2023-04-12T03:56:00;-0.53;99.52
68804;SHT31;55787;52.678;13.314;2023-04-12T03:58:26;-0.57;99.35
68804;SHT31;55787;52.678;13.314;2023-04-12T04:00:53;-0.57;99.29
68804;SHT31;55787;52.678;13.314;2023-04-12T04:03:19;-0.60;99.31
68804;SHT31;55787;52.678;13.314;2023-04-12T04:05:52;-0.62;99.31
68804;SHT31;55787;52.678;13.314;2023-04-12T04:08:18;-0.65;99.33
68804;SHT31;55787;52.678;13.314;2023-04-12T04:10:45;-0.67;99.30
68804;SHT31;55787;52.678;13.314;2023-04-12T04:13:12;-0.68;99.09
68804;SHT31;55787;52.678;13.314;2023-04-12T04:15:38;-0.74;99.24
68804;SHT31;55787;52.678;13.314;2023-04-12T04:18:05;-0.72;99.68
68804;SHT31;55787;52.678;13.314;2023-04-12T04:20:32;-0.72;99.56
68804;SHT31;55787;52.678;13.314;2023-04-12T04:22:58;-0.77;99.56
68804;SHT31;55787;52.678;13.314;2023-04-12T04:25:25;-0.77;99.80
68804;SHT31;55787;52.678;13.314;2023-04-12T04:27:58;-0.75;99.75
68804;SHT31;55787;52.678;13.314;2023-04-12T04:30:28;-0.78;99.67
68804;SHT31;55787;52.678;13.314;2023-04-12T04:32:54;-0.72;99.99
68804;SHT31;55787;52.678;13.314;2023-04-12T04:35:21;-0.65;99.99
68804;SHT31;55787;52.678;13.314;2023-04-12T04:37:49;-0.61;99.99
68804;SHT31;55787;52.678;13.314;2023-04-12T04:40:18;-0.57;99.99
68804;SHT31;55787;52.678;13.314;2023-04-12T04:42:47;-0.56;99.99
68804;SHT31;55787;52.678;13.314;2023-04-12T04:45:23;-0.54;99.78
68804;SHT31;55787;52.678;13.314;2023-04-12T04:47:53;-0.54;99.99
68804;SHT31;55787;52.678;13.314;2023-04-12T04:50:20;-0.53;99.99
68804;SHT31;55787;52.678;13.314;2023-04-12T04:52:48;-0.51;99.86
68804;SHT31;55787;52.678;13.314;2023-04-12T04:55:17;-0.44;99.92
68804;SHT31;55787;52.678;13.314;2023-04-12T04:57:43;-0.41;99.99
68804;SHT31;55787;52.678;13.314;2023-04-12T05:00:10;-0.36;99.99
68804;SHT31;55787;52.678;13.314;2023-04-12T05:02:40;-0.30;99.99
68804;SHT31;55787;52.678;13.314;2023-04-12T05:05:11;-0.20;99.99
68804;SHT31;55787;52.678;13.314;2023-04-12T05:07:58;-0.09;99.99
68804;SHT31;55787;52.678;13.314;2023-04-12T05:10:24;0.00;99.99
68804;SHT31;55787;52.678;13.314;2023-04-12T05:12:51;0.11;99.99
68804;SHT31;55787;52.678;13.314;2023-04-12T05:15:18;0.25;99.99
68804;SHT31;55787;52.678;13.314;2023-04-12T05:17:45;0.38;99.99
68804;SHT31;55787;52.678;13.314;2023-04-12T05:20:12;0.49;99.99
68804;SHT31;55787;52.678;13.314;2023-04-12T05:22:39;0.63;99.99
68804;SHT31;55787;52.678;13.314;2023-04-12T05:25:06;0.83;99.99
68804;SHT31;55787;52.678;13.314;2023-04-12T05:27:32;1.03;99.99
68804;SHT31;55787;52.678;13.314;2023-04-12T05:29:59;1.24;99.99
68804;SHT31;55787;52.678;13.314;2023-04-12T05:32:25;1.54;99.99
68804;SHT31;55787;52.678;13.314;2023-04-12T05:34:52;1.75;99.75
68804;SHT31;55787;52.678;13.314;2023-04-12T05:37:19;1.86;99.67
68804;SHT31;55787;52.678;13.314;2023-04-12T05:39:46;1.99;99.26
68804;SHT31;55787;52.678;13.314;2023-04-12T05:42:12;2.09;99.16
68804;SHT31;55787;52.678;13.314;2023-04-12T05:44:39;2.20;99.21
68804;SHT31;55787;52.678;13.314;2023-04-12T05:47:06;2.36;99.32
68804;SHT31;55787;52.678;13.314;2023-04-12T05:49:32;2.52;99.17
68804;SHT31;55787;52.678;13.314;2023-04-12T05:51:59;2.72;98.89
68804;SHT31;55787;52.678;13.314;2023-04-12T05:54:26;2.98;97.98
68804;SHT31;55787;52.678;13.314;2023-04-12T05:56:53;3.43;97.63
68804;SHT31;55787;52.678;13.314;2023-04-12T05:59:20;4.85;93.78
68804;SHT31;55787;52.678;13.314;2023-04-12T06:01:47;6.48;84.32
68804;SHT31;55787;52.678;13.314;2023-04-12T06:04:14;8.15;78.94
68804;SHT31;55787;52.678;13.314;2023-04-12T06:06:41;9.07;73.87
68804;SHT31;55787;52.678;13.314;2023-04-12T06:09:09;9.87;71.07
68804;SHT31;55787;52.678;13.314;2023-04-12T06:11:36;10.17;67.62
68804;SHT31;55787;52.678;13.314;2023-04-12T06:14:06;9.72;68.80
68804;SHT31;55787;52.678;13.314;2023-04-12T06:16:35;9.43;69.07
68804;SHT31;55787;52.678;13.314;2023-04-12T06:19:02;9.67;68.80
68804;SHT31;55787;52.678;13.314;2023-04-12T06:21:29;10.27;67.77
68804;SHT31;55787;52.678;13.314;2023-04-12T06:23:56;10.96;65.93
68804;SHT31;55787;52.678;13.314;2023-04-12T06:26:23;11.45;63.72
68804;SHT31;55787;52.678;13.314;2023-04-12T06:28:49;11.81;62.32
68804;SHT31;55787;52.678;13.314;2023-04-12T06:31:16;12.40;59.92
68804;SHT31;55787;52.678;13.314;2023-04-12T06:33:42;12.37;59.60
68804;SHT31;55787;52.678;13.314;2023-04-12T06:36:10;12.84;58.97
68804;SHT31;55787;52.678;13.314;2023-04-12T06:38:37;12.85;59.60
68804;SHT31;55787;52.678;13.314;2023-04-12T06:41:05;13.29;57.74
68804;SHT31;55787;52.678;13.314;2023-04-12T06:43:31;14.07;55.21
68804;SHT31;55787;52.678;13.314;2023-04-12T06:45:58;14.00;54.75
68804;SHT31;55787;52.678;13.314;2023-04-12T06:48:28;14.32;54.62
68804;SHT31;55787;52.678;13.314;2023-04-12T06:50:55;14.60;53.63
68804;SHT31;55787;52.678;13.314;2023-04-12T06:53:21;15.19;52.79
68804;SHT31;55787;52.678;13.314;2023-04-12T06:55:49;15.07;51.31
68804;SHT31;55787;52.678;13.314;2023-04-12T06:58:16;15.10;51.77
68804;SHT31;55787;52.678;13.314;2023-04-12T07:00:42;15.94;49.68
68804;SHT31;55787;52.678;13.314;2023-04-12T07:03:09;16.29;49.01
68804;SHT31;55787;52.678;13.314;2023-04-12T07:05:37;15.88;49.27
68804;SHT31;55787;52.678;13.314;2023-04-12T07:08:04;16.23;48.39
68804;SHT31;55787;52.678;13.314;2023-04-12T07:10:31;15.13;50.37
68804;SHT31;55787;52.678;13.314;2023-04-12T07:12:58;15.47;49.77
68804;SHT31;55787;52.678;13.314;2023-04-12T07:15:28;15.97;50.41
68804;SHT31;55787;52.678;13.314;2023-04-12T07:17:55;16.83;47.70
68804;SHT31;55787;52.678;13.314;2023-04-12T07:20:22;15.65;49.31
68804;SHT31;55787;52.678;13.314;2023-04-12T07:22:48;16.52;48.27
68804;SHT31;55787;52.678;13.314;2023-04-12T07:25:15;16.56;48.19
68804;SHT31;55787;52.678;13.314;2023-04-12T07:27:41;16.97;47.59
68804;SHT31;55787;52.678;13.314;2023-04-12T07:30:09;17.31;46.35
68804;SHT31;55787;52.678;13.314;2023-04-12T07:32:36;18.34;44.17
68804;SHT31;55787;52.678;13.314;2023-04-12T07:35:03;18.45;43.53
68804;SHT31;55787;52.678;13.314;2023-04-12T07:37:29;18.75;43.08
68804;SHT31;55787;52.678;13.314;2023-04-12T07:39:56;18.09;43.38
68804;SHT31;55787;52.678;13.314;2023-04-12T07:42:23;18.00;43.37
68804;SHT31;55787;52.678;13.314;2023-04-12T07:44:50;18.43;41.31
68804;SHT31;55787;52.678;13.314;2023-04-12T07:47:16;17.15;43.96
68804;SHT31;55787;52.678;13.314;2023-04-12T07:49:43;17.89;42.86
68804;SHT31;55787;52.678;13.314;2023-04-12T07:52:09;18.09;41.31
68804;SHT31;55787;52.678;13.314;2023-04-12T07:54:36;19.19;40.36
68804;SHT31;55787;52.678;13.314;2023-04-12T07:57:03;19.53;39.05
68804;SHT31;55787;52.678;13.314;2023-04-12T07:59:30;19.02;39.36
68804;SHT31;55787;52.678;13.314;2023-04-12T08:01:57;19.74;39.47
68804;SHT31;55787;52.678;13.314;2023-04-12T08:04:23;20.45;37.03
68804;SHT31;55787;52.678;13.314;2023-04-12T08:06:50;21.17;36.16
68804;SHT31;55787;52.678;13.314;2023-04-12T08:09:17;20.52;35.75
68804;SHT31;55787;52.678;13.314;2023-04-12T08:11:44;20.02;36.16
68804;SHT31;55787;52.678;13.314;2023-04-12T08:14:10;21.32;35.38
68804;SHT31;55787;52.678;13.314;2023-04-12T08:16:37;20.04;35.31
68804;SHT31;55787;52.678;13.314;2023-04-12T08:19:03;20.60;35.46
68804;SHT31;55787;52.678;13.314;2023-04-12T08:21:30;20.75;34.35
68804;SHT31;55787;52.678;13.314;2023-04-12T08:23:57;20.50;34.45
68804;SHT31;55787;52.678;13.314;2023-04-12T08:26:24;20.43;35.13
68804;SHT31;55787;52.678;13.314;2023-04-12T08:28:52;20.18;35.44
68804;SHT31;55787;52.678;13.314;2023-04-12T08:31:18;19.97;35.68
68804;SHT31;55787;52.678;13.314;2023-04-12T08:33:45;21.24;33.66
68804;SHT31;55787;52.678;13.314;2023-04-12T08:36:12;21.47;34.10
68804;SHT31;55787;52.678;13.314;2023-04-12T08:38:38;21.00;32.23
68804;SHT31;55787;52.678;13.314;2023-04-12T08:41:11;20.77;33.92
68804;SHT31;55787;52.678;13.314;2023-04-12T08:43:42;21.44;32.64
68804;SHT31;55787;52.678;13.314;2023-04-12T08:46:11;21.07;32.17
68804;SHT31;55787;52.678;13.314;2023-04-12T08:48:45;20.86;32.24
68804;SHT31;55787;52.678;13.314;2023-04-12T08:51:13;20.97;32.18
68804;SHT31;55787;52.678;13.314;2023-04-12T08:53:41;20.66;31.70
68804;SHT31;55787;52.678;13.314;2023-04-12T08:56:11;20.55;31.88
68804;SHT31;55787;52.678;13.314;2023-04-12T08:58:40;21.23;32.18
68804;SHT31;55787;52.678;13.314;2023-04-12T09:01:10;22.36;31.28
68804;SHT31;55787;52.678;13.314;2023-04-12T09:03:41;21.37;30.88
68804;SHT31;55787;52.678;13.314;2023-04-12T09:06:09;20.99;31.11
68804;SHT31;55787;52.678;13.314;2023-04-12T09:08:36;21.57;31.25
68804;SHT31;55787;52.678;13.314;2023-04-12T09:11:24;20.91;30.26
68804;SHT31;55787;52.678;13.314;2023-04-12T09:13:53;20.36;31.73
68804;SHT31;55787;52.678;13.314;2023-04-12T09:16:52;21.89;29.75
68804;SHT31;55787;52.678;13.314;2023-04-12T09:19:35;22.10;29.08
68804;SHT31;55787;52.678;13.314;2023-04-12T09:22:01;22.20;29.06
68804;SHT31;55787;52.678;13.314;2023-04-12T09:24:28;22.37;28.72
68804;SHT31;55787;52.678;13.314;2023-04-12T09:27:03;21.95;29.29
68804;SHT31;55787;52.678;13.314;2023-04-12T09:29:31;22.81;28.09
68804;SHT31;55787;52.678;13.314;2023-04-12T09:32:02;23.65;27.77
68804;SHT31;55787;52.678;13.314;2023-04-12T09:34:30;24.13;26.99
68804;SHT31;55787;52.678;13.314;2023-04-12T09:36:58;23.35;27.44
68804;SHT31;55787;52.678;13.314;2023-04-12T09:39:33;23.70;27.58
68804;SHT31;55787;52.678;13.314;2023-04-12T09:42:07;24.01;27.46
68804;SHT31;55787;52.678;13.314;2023-04-12T09:44:56;25.03;25.59
68804;SHT31;55787;52.678;13.314;2023-04-12T09:47:35;25.68;26.28
68804;SHT31;55787;52.678;13.314;2023-04-12T09:50:04;24.64;25.36
68804;SHT31;55787;52.678;13.314;2023-04-12T09:52:38;24.66;25.29
68804;SHT31;55787;52.678;13.314;2023-04-12T09:55:08;24.66;25.44
68804;SHT31;55787;52.678;13.314;2023-04-12T09:57:42;23.96;25.37
68804;SHT31;55787;52.678;13.314;2023-04-12T10:00:11;23.20;25.62
68804;SHT31;55787;52.678;13.314;2023-04-12T10:02:46;21.93;26.90
68804;SHT31;55787;52.678;13.314;2023-04-12T10:05:21;22.33;27.37
68804;SHT31;55787;52.678;13.314;2023-04-12T10:07:52;22.63;27.77
68804;SHT31;55787;52.678;13.314;2023-04-12T10:10:19;23.29;27.21
68804;SHT31;55787;52.678;13.314;2023-04-12T10:12:47;23.66;25.85
68804;SHT31;55787;52.678;13.314;2023-04-12T10:15:15;22.21;26.34
68804;SHT31;55787;52.678;13.314;2023-04-12T10:17:53;21.41;27.93
68804;SHT31;55787;52.678;13.314;2023-04-12T10:20:21;22.23;28.93
68804;SHT31;55787;52.678;13.314;2023-04-12T10:22:52;22.58;26.23
68804;SHT31;55787;52.678;13.314;2023-04-12T10:25:22;22.81;27.18
68804;SHT31;55787;52.678;13.314;2023-04-12T10:27:49;23.42;25.37
68804;SHT31;55787;52.678;13.314;2023-04-12T10:30:28;23.16;25.69
68804;SHT31;55787;52.678;13.314;2023-04-12T10:35:29;23.15;26.68
68804;SHT31;55787;52.678;13.314;2023-04-12T10:38:00;23.71;26.33
68804;SHT31;55787;52.678;13.314;2023-04-12T10:40:28;24.49;24.80
68804;SHT31;55787;52.678;13.314;2023-04-12T10:43:23;25.38;24.29
68804;SHT31;55787;52.678;13.314;2023-04-12T10:45:50;25.28;23.97
68804;SHT31;55787;52.678;13.314;2023-04-12T10:51:18;24.08;25.21
68804;SHT31;55787;52.678;13.314;2023-04-12T10:53:52;24.07;25.63
68804;SHT31;55787;52.678;13.314;2023-04-12T10:59:00;24.04;25.49
68804;SHT31;55787;52.678;13.314;2023-04-12T11:01:27;23.43;26.49
68804;SHT31;55787;52.678;13.314;2023-04-12T11:04:23;23.26;27.17
68804;SHT31;55787;52.678;13.314;2023-04-12T11:14:49;24.97;24.70
68804;SHT31;55787;52.678;13.314;2023-04-12T11:19:45;23.87;25.22
68804;SHT31;55787;52.678;13.314;2023-04-12T11:22:14;22.83;26.74
68804;SHT31;55787;52.678;13.314;2023-04-12T11:24:46;23.59;26.06
68804;SHT31;55787;52.678;13.314;2023-04-12T11:27:14;24.45;24.96
68804;SHT31;55787;52.678;13.314;2023-04-12T11:29:47;23.18;25.18
68804;SHT31;55787;52.678;13.314;2023-04-12T11:32:14;23.56;26.79
68804;SHT31;55787;52.678;13.314;2023-04-12T11:34:42;25.03;25.16
68804;SHT31;55787;52.678;13.314;2023-04-12T11:37:09;25.38;23.99
68804;SHT31;55787;52.678;13.314;2023-04-12T11:39:43;25.30;25.52
68804;SHT31;55787;52.678;13.314;2023-04-12T11:42:16;23.01;28.17
68804;SHT31;55787;52.678;13.314;2023-04-12T11:44:43;24.57;25.74
68804;SHT31;55787;52.678;13.314;2023-04-12T11:47:15;24.37;26.40
68804;SHT31;55787;52.678;13.314;2023-04-12T11:49:43;24.83;24.74
68804;SHT31;55787;52.678;13.314;2023-04-12T11:52:10;25.56;24.87
68804;SHT31;55787;52.678;13.314;2023-04-12T11:54:41;24.79;25.28
68804;SHT31;55787;52.678;13.314;2023-04-12T11:57:10;22.84;26.56
68804;SHT31;55787;52.678;13.314;2023-04-12T11:59:38;21.90;27.96
68804;SHT31;55787;52.678;13.314;2023-04-12T12:02:07;21.37;29.06
68804;SHT31;55787;52.678;13.314;2023-04-12T12:04:49;19.97;29.92
68804;SHT31;55787;52.678;13.314;2023-04-12T12:07:16;19.33;32.84
68804;SHT31;55787;52.678;13.314;2023-04-12T12:09:44;18.87;32.06
68804;SHT31;55787;52.678;13.314;2023-04-12T12:12:12;18.47;33.46
68804;SHT31;55787;52.678;13.314;2023-04-12T12:14:39;18.23;33.14
68804;SHT31;55787;52.678;13.314;2023-04-12T12:17:13;18.20;32.84
68804;SHT31;55787;52.678;13.314;2023-04-12T12:19:42;18.20;33.21
68804;SHT31;55787;52.678;13.314;2023-04-12T12:22:17;18.01;33.44
68804;SHT31;55787;52.678;13.314;2023-04-12T12:24:48;18.21;32.87
68804;SHT31;55787;52.678;13.314;2023-04-12T12:27:21;17.99;33.17
68804;SHT31;55787;52.678;13.314;2023-04-12T12:29:49;18.04;33.69
68804;SHT31;55787;52.678;13.314;2023-04-12T12:32:17;17.55;35.02
68804;SHT31;55787;52.678;13.314;2023-04-12T12:34:55;17.45;35.27
68804;SHT31;55787;52.678;13.314;2023-04-12T12:37:23;17.71;33.30
68804;SHT31;55787;52.678;13.314;2023-04-12T12:42:26;17.27;34.98
68804;SHT31;55787;52.678;13.314;2023-04-12T12:44:54;17.24;34.62
68804;SHT31;55787;52.678;13.314;2023-04-12T12:47:21;17.45;35.07
68804;SHT31;55787;52.678;13.314;2023-04-12T12:49:47;17.00;34.36
68804;SHT31;55787;52.678;13.314;2023-04-12T12:52:14;16.66;34.61
68804;SHT31;55787;52.678;13.314;2023-04-12T12:54:43;16.66;35.19
68804;SHT31;55787;52.678;13.314;2023-04-12T12:57:10;16.56;35.40
68804;SHT31;55787;52.678;13.314;2023-04-12T12:59:36;16.56;35.86
68804;SHT31;55787;52.678;13.314;2023-04-12T13:02:03;16.43;35.21
68804;SHT31;55787;52.678;13.314;2023-04-12T13:04:31;16.28;36.00
68804;SHT31;55787;52.678;13.314;2023-04-12T13:06:58;16.30;36.96
68804;SHT31;55787;52.678;13.314;2023-04-12T13:09:24;16.26;35.98
68804;SHT31;55787;52.678;13.314;2023-04-12T13:11:51;16.23;35.71
68804;SHT31;55787;52.678;13.314;2023-04-12T13:14:18;16.32;37.29
68804;SHT31;55787;52.678;13.314;2023-04-12T13:16:44;16.28;36.82
68804;SHT31;55787;52.678;13.314;2023-04-12T13:19:13;16.53;37.17
68804;SHT31;55787;52.678;13.314;2023-04-12T13:21:42;16.60;37.13
68804;SHT31;55787;52.678;13.314;2023-04-12T13:24:08;16.95;36.02
68804;SHT31;55787;52.678;13.314;2023-04-12T13:26:35;17.32;35.08
68804;SHT31;55787;52.678;13.314;2023-04-12T13:29:01;17.41;35.15
68804;SHT31;55787;52.678;13.314;2023-04-12T13:31:28;17.08;35.21
68804;SHT31;55787;52.678;13.314;2023-04-12T13:33:55;17.07;35.70
68804;SHT31;55787;52.678;13.314;2023-04-12T13:36:22;17.10;36.14
68804;SHT31;55787;52.678;13.314;2023-04-12T13:38:48;16.94;36.46
68804;SHT31;55787;52.678;13.314;2023-04-12T13:41:15;16.94;37.42
68804;SHT31;55787;52.678;13.314;2023-04-12T13:43:41;16.83;35.90
68804;SHT31;55787;52.678;13.314;2023-04-12T13:46:08;16.59;35.99
68804;SHT31;55787;52.678;13.314;2023-04-12T13:48:34;16.23;36.13
68804;SHT31;55787;52.678;13.314;2023-04-12T13:51:01;16.33;37.12
68804;SHT31;55787;52.678;13.314;2023-04-12T13:53:29;16.62;36.57
68804;SHT31;55787;52.678;13.314;2023-04-12T13:55:56;16.55;38.38
68804;SHT31;55787;52.678;13.314;2023-04-12T13:58:22;16.50;38.35
68804;SHT31;55787;52.678;13.314;2023-04-12T14:00:51;16.62;37.70
68804;SHT31;55787;52.678;13.314;2023-04-12T14:03:19;16.49;37.42
68804;SHT31;55787;52.678;13.314;2023-04-12T14:05:46;16.25;38.22
68804;SHT31;55787;52.678;13.314;2023-04-12T14:08:13;15.91;37.61
68804;SHT31;55787;52.678;13.314;2023-04-12T14:10:39;15.75;38.49
68804;SHT31;55787;52.678;13.314;2023-04-12T14:13:06;15.44;38.02
68804;SHT31;55787;52.678;13.314;2023-04-12T14:15:32;15.47;38.43
68804;SHT31;55787;52.678;13.314;2023-04-12T14:17:59;15.37;39.27
68804;SHT31;55787;52.678;13.314;2023-04-12T14:20:26;15.40;39.43
68804;SHT31;55787;52.678;13.314;2023-04-12T14:22:52;15.26;40.43
68804;SHT31;55787;52.678;13.314;2023-04-12T14:25:19;15.23;39.52
68804;SHT31;55787;52.678;13.314;2023-04-12T14:27:46;15.16;39.63
68804;SHT31;55787;52.678;13.314;2023-04-12T14:30:13;15.10;39.69
68804;SHT31;55787;52.678;13.314;2023-04-12T14:32:41;14.99;39.91
68804;SHT31;55787;52.678;13.314;2023-04-12T14:35:11;14.98;40.56
68804;SHT31;55787;52.678;13.314;2023-04-12T14:37:37;14.99;40.76
68804;SHT31;55787;52.678;13.314;2023-04-12T14:40:04;15.10;40.97
68804;SHT31;55787;52.678;13.314;2023-04-12T14:42:34;15.10;40.77
68804;SHT31;55787;52.678;13.314;2023-04-12T14:45:00;14.88;41.29
68804;SHT31;55787;52.678;13.314;2023-04-12T14:47:27;14.85;41.18
68804;SHT31;55787;52.678;13.314;2023-04-12T14:49:54;14.86;41.86
68804;SHT31;55787;52.678;13.314;2023-04-12T14:52:21;14.78;42.36
68804;SHT31;55787;52.678;13.314;2023-04-12T14:54:47;14.55;43.84
68804;SHT31;55787;52.678;13.314;2023-04-12T14:57:14;14.23;43.95
68804;SHT31;55787;52.678;13.314;2023-04-12T14:59:40;14.32;43.49
68804;SHT31;55787;52.678;13.314;2023-04-12T15:02:07;14.28;43.80
68804;SHT31;55787;52.678;13.314;2023-04-12T15:04:34;14.11;44.87
68804;SHT31;55787;52.678;13.314;2023-04-12T15:07:01;13.87;46.09
68804;SHT31;55787;52.678;13.314;2023-04-12T15:09:28;13.58;46.78
68804;SHT31;55787;52.678;13.314;2023-04-12T15:11:54;13.46;48.49
68804;SHT31;55787;52.678;13.314;2023-04-12T15:14:26;13.62;47.38
68804;SHT31;55787;52.678;13.314;2023-04-12T15:16:53;13.62;47.55
68804;SHT31;55787;52.678;13.314;2023-04-12T15:19:20;13.67;48.04
68804;SHT31;55787;52.678;13.314;2023-04-12T15:21:50;13.49;48.07
68804;SHT31;55787;52.678;13.314;2023-04-12T15:24:18;13.36;48.38
68804;SHT31;55787;52.678;13.314;2023-04-12T15:26:47;13.36;49.18
68804;SHT31;55787;52.678;13.314;2023-04-12T15:29:14;13.49;48.60
68804;SHT31;55787;52.678;13.314;2023-04-12T15:31:42;13.42;48.60
68804;SHT31;55787;52.678;13.314;2023-04-12T15:34:09;13.36;48.40
68804;SHT31;55787;52.678;13.314;2023-04-12T15:36:36;13.25;49.63
68804;SHT31;55787;52.678;13.314;2023-04-12T15:39:03;13.04;51.01
68804;SHT31;55787;52.678;13.314;2023-04-12T15:41:33;12.88;53.09
68804;SHT31;55787;52.678;13.314;2023-04-12T15:44:06;12.84;54.51
68804;SHT31;55787;52.678;13.314;2023-04-12T15:46:36;12.71;55.52
68804;SHT31;55787;52.678;13.314;2023-04-12T15:49:03;12.37;57.22
68804;SHT31;55787;52.678;13.314;2023-04-12T15:51:31;12.33;58.56
68804;SHT31;55787;52.678;13.314;2023-04-12T15:53:58;12.30;59.40
68804;SHT31;55787;52.678;13.314;2023-04-12T15:56:25;12.34;60.61
68804;SHT31;55787;52.678;13.314;2023-04-12T15:58:54;12.40;61.82
68804;SHT31;55787;52.678;13.314;2023-04-12T16:01:23;12.09;63.25